sensor_id;sensor_type;location;lat;lon;timestamp;P1;durP1;ratioP1;P2;durP2;ratioP2
23362;SDS011;11853;48.080;11.960;2023-03-09T00:01:53;2.10;;;1.90;;
23362;SDS011;11853;48.080;11.960;2023-03-09T00:04:19;1.60;;;1.50;;
23362;SDS011;11853;48.080;11.960;2023-03-09T00:06:45;1.65;;;1.20;;
23362;SDS011;11853;48.080;11.960;2023-03-09T00:09:12;1.50;;;1.40;;
23362;SDS011;11853;48.080;11.960;2023-03-09T00:11:40;1.98;;;1.65;;
23362;SDS011;11853;48.080;11.960;2023-03-09T00:14:06;1.85;;;1.40;;
23362;SDS011;11853;48.080;11.960;2023-03-09T00:16:32;1.65;;;1.55;;
23362;SDS011;11853;48.080;11.960;2023-03-09T00:19:01;1.80;;;1.50;;
23362;SDS011;11853;48.080;11.960;2023-03-09T00:21:27;3.97;;;2.40;;
23362;SDS011;11853;48.080;11.960;2023-03-09T00:24:18;1.33;;;1.23;;
23362;SDS011;11853;48.080;11.960;2023-03-09T00:26:49;1.35;;;1.25;;
23362;SDS011;11853;48.080;11.960;2023-03-09T00:29:16;1.55;;;1.40;;
23362;SDS011;11853;48.080;11.960;2023-03-09T00:31:42;1.90;;;1.20;;
23362;SDS011;11853;48.080;11.960;2023-03-09T00:34:09;1.50;;;1.40;;
23362;SDS011;11853;48.080;11.960;2023-03-09T00:36:35;1.30;;;1.20;;
23362;SDS011;11853;48.080;11.960;2023-03-09T00:39:01;1.60;;;1.50;;
23362;SDS011;11853;48.080;11.960;2023-03-09T00:41:28;1.50;;;1.40;;
23362;SDS011;11853;48.080;11.960;2023-03-09T00:43:56;1.55;;;1.13;;
23362;SDS011;11853;48.080;11.960;2023-03-09T00:46:22;1.90;;;1.30;;
23362;SDS011;11853;48.080;11.960;2023-03-09T00:48:48;1.45;;;1.15;;
23362;SDS011;11853;48.080;11.960;2023-03-09T00:51:14;1.30;;;1.15;;
23362;SDS011;11853;48.080;11.960;2023-03-09T00:53:41;1.42;;;1.30;;
23362;SDS011;11853;48.080;11.960;2023-03-09T00:56:07;3.90;;;1.65;;
23362;SDS011;11853;48.080;11.960;2023-03-09T00:58:37;2.17;;;1.15;;
23362;SDS011;11853;48.080;11.960;2023-03-09T01:01:07;1.60;;;1.10;;
23362;SDS011;11853;48.080;11.960;2023-03-09T01:03:33;1.48;;;1.00;;
23362;SDS011;11853;48.080;11.960;2023-03-09T01:05:59;1.50;;;1.30;;
23362;SDS011;11853;48.080;11.960;2023-03-09T01:08:25;0.98;;;0.98;;
23362;SDS011;11853;48.080;11.960;2023-03-09T01:10:51;0.90;;;0.90;;
23362;SDS011;11853;48.080;11.960;2023-03-09T01:13:17;1.00;;;0.90;;
23362;SDS011;11853;48.080;11.960;2023-03-09T01:15:43;1.33;;;0.90;;
23362;SDS011;11853;48.080;11.960;2023-03-09T01:18:08;0.82;;;0.70;;
23362;SDS011;11853;48.080;11.960;2023-03-09T01:20:34;1.95;;;1.08;;
23362;SDS011;11853;48.080;11.960;2023-03-09T01:23:00;0.77;;;0.70;;
23362;SDS011;11853;48.080;11.960;2023-03-09T01:25:26;0.85;;;0.80;;
23362;SDS011;11853;48.080;11.960;2023-03-09T01:27:52;0.85;;;0.85;;
23362;SDS011;11853;48.080;11.960;2023-03-09T01:30:18;2.20;;;0.90;;
23362;SDS011;11853;48.080;11.960;2023-03-09T01:32:44;2.95;;;1.00;;
23362;SDS011;11853;48.080;11.960;2023-03-09T01:35:09;0.70;;;0.70;;
23362;SDS011;11853;48.080;11.960;2023-03-09T01:37:35;1.30;;;1.20;;
23362;SDS011;11853;48.080;11.960;2023-03-09T01:40:01;1.92;;;0.88;;
23362;SDS011;11853;48.080;11.960;2023-03-09T01:42:30;1.73;;;0.80;;
23362;SDS011;11853;48.080;11.960;2023-03-09T01:47:51;0.88;;;0.73;;
23362;SDS011;11853;48.080;11.960;2023-03-09T01:50:21;2.38;;;0.90;;
23362;SDS011;11853;48.080;11.960;2023-03-09T01:52:55;1.27;;;1.05;;
23362;SDS011;11853;48.080;11.960;2023-03-09T01:55:29;0.90;;;0.90;;
23362;SDS011;11853;48.080;11.960;2023-03-09T01:58:06;1.80;;;1.10;;
23362;SDS011;11853;48.080;11.960;2023-03-09T02:00:35;1.85;;;0.90;;
23362;SDS011;11853;48.080;11.960;2023-03-09T02:03:08;1.02;;;0.80;;
23362;SDS011;11853;48.080;11.960;2023-03-09T02:08:10;0.95;;;0.60;;
23362;SDS011;11853;48.080;11.960;2023-03-09T02:10:42;1.13;;;0.60;;
23362;SDS011;11853;48.080;11.960;2023-03-09T02:13:15;1.00;;;0.80;;
23362;SDS011;11853;48.080;11.960;2023-03-09T02:15:44;0.50;;;0.50;;
23362;SDS011;11853;48.080;11.960;2023-03-09T02:18:09;0.85;;;0.75;;
23362;SDS011;11853;48.080;11.960;2023-03-09T02:23:36;0.95;;;0.40;;
23362;SDS011;11853;48.080;11.960;2023-03-09T02:26:15;0.60;;;0.60;;
23362;SDS011;11853;48.080;11.960;2023-03-09T02:28:48;0.77;;;0.50;;
23362;SDS011;11853;48.080;11.960;2023-03-09T02:31:14;0.50;;;0.50;;
23362;SDS011;11853;48.080;11.960;2023-03-09T02:33:48;0.40;;;0.40;;
23362;SDS011;11853;48.080;11.960;2023-03-09T02:36:13;1.08;;;0.55;;
23362;SDS011;11853;48.080;11.960;2023-03-09T02:38:39;0.50;;;0.50;;
23362;SDS011;11853;48.080;11.960;2023-03-09T02:41:05;0.50;;;0.40;;
23362;SDS011;11853;48.080;11.960;2023-03-09T02:43:49;0.40;;;0.40;;
23362;SDS011;11853;48.080;11.960;2023-03-09T02:46:17;1.08;;;0.38;;
23362;SDS011;11853;48.080;11.960;2023-03-09T02:48:43;0.30;;;0.30;;
23362;SDS011;11853;48.080;11.960;2023-03-09T02:51:09;0.85;;;0.40;;
23362;SDS011;11853;48.080;11.960;2023-03-09T02:53:35;0.60;;;0.60;;
23362;SDS011;11853;48.080;11.960;2023-03-09T02:56:00;0.30;;;0.30;;
23362;SDS011;11853;48.080;11.960;2023-03-09T02:58:27;0.73;;;0.30;;
23362;SDS011;11853;48.080;11.960;2023-03-09T03:00:53;0.55;;;0.30;;
23362;SDS011;11853;48.080;11.960;2023-03-09T03:03:19;0.90;;;0.32;;
23362;SDS011;11853;48.080;11.960;2023-03-09T03:05:45;0.43;;;0.43;;
23362;SDS011;11853;48.080;11.960;2023-03-09T03:08:14;1.95;;;0.43;;
23362;SDS011;11853;48.080;11.960;2023-03-09T03:10:40;0.90;;;0.60;;
23362;SDS011;11853;48.080;11.960;2023-03-09T03:13:06;0.65;;;0.40;;
23362;SDS011;11853;48.080;11.960;2023-03-09T03:15:32;0.95;;;0.60;;
23362;SDS011;11853;48.080;11.960;2023-03-09T03:17:57;2.33;;;0.47;;
23362;SDS011;11853;48.080;11.960;2023-03-09T03:20:24;0.73;;;0.43;;
23362;SDS011;11853;48.080;11.960;2023-03-09T03:22:50;1.38;;;0.52;;
23362;SDS011;11853;48.080;11.960;2023-03-09T03:25:16;0.40;;;0.40;;
23362;SDS011;11853;48.080;11.960;2023-03-09T03:27:42;1.33;;;0.65;;
23362;SDS011;11853;48.080;11.960;2023-03-09T03:30:09;0.57;;;0.52;;
23362;SDS011;11853;48.080;11.960;2023-03-09T03:32:36;1.38;;;0.45;;
23362;SDS011;11853;48.080;11.960;2023-03-09T03:35:02;0.60;;;0.40;;
23362;SDS011;11853;48.080;11.960;2023-03-09T03:37:28;0.68;;;0.68;;
23362;SDS011;11853;48.080;11.960;2023-03-09T03:39:55;1.25;;;0.70;;
23362;SDS011;11853;48.080;11.960;2023-03-09T03:42:20;0.70;;;0.65;;
23362;SDS011;11853;48.080;11.960;2023-03-09T03:44:46;0.50;;;0.50;;
23362;SDS011;11853;48.080;11.960;2023-03-09T03:47:11;1.30;;;0.50;;
23362;SDS011;11853;48.080;11.960;2023-03-09T03:49:37;1.45;;;0.50;;
23362;SDS011;11853;48.080;11.960;2023-03-09T03:52:03;1.23;;;0.50;;
23362;SDS011;11853;48.080;11.960;2023-03-09T03:54:29;1.75;;;0.38;;
23362;SDS011;11853;48.080;11.960;2023-03-09T03:56:55;1.85;;;0.40;;
23362;SDS011;11853;48.080;11.960;2023-03-09T03:59:20;0.50;;;0.40;;
23362;SDS011;11853;48.080;11.960;2023-03-09T04:01:46;1.00;;;0.68;;
23362;SDS011;11853;48.080;11.960;2023-03-09T04:04:12;1.42;;;0.70;;
23362;SDS011;11853;48.080;11.960;2023-03-09T04:06:38;1.45;;;0.50;;
23362;SDS011;11853;48.080;11.960;2023-03-09T04:09:03;0.68;;;0.68;;
23362;SDS011;11853;48.080;11.960;2023-03-09T04:11:30;0.55;;;0.55;;
23362;SDS011;11853;48.080;11.960;2023-03-09T04:13:56;2.15;;;0.73;;
23362;SDS011;11853;48.080;11.960;2023-03-09T04:16:21;0.82;;;0.47;;
23362;SDS011;11853;48.080;11.960;2023-03-09T04:18:47;0.98;;;0.68;;
23362;SDS011;11853;48.080;11.960;2023-03-09T04:21:12;2.40;;;1.00;;
23362;SDS011;11853;48.080;11.960;2023-03-09T04:23:38;0.73;;;0.65;;
23362;SDS011;11853;48.080;11.960;2023-03-09T04:26:04;0.77;;;0.70;;
23362;SDS011;11853;48.080;11.960;2023-03-09T04:28:30;0.90;;;0.60;;
23362;SDS011;11853;48.080;11.960;2023-03-09T04:30:56;0.40;;;0.40;;
23362;SDS011;11853;48.080;11.960;2023-03-09T04:33:22;1.65;;;0.50;;
23362;SDS011;11853;48.080;11.960;2023-03-09T04:35:48;0.68;;;0.50;;
23362;SDS011;11853;48.080;11.960;2023-03-09T04:38:14;3.80;;;0.98;;
23362;SDS011;11853;48.080;11.960;2023-03-09T04:40:39;1.45;;;0.77;;
23362;SDS011;11853;48.080;11.960;2023-03-09T04:43:06;0.75;;;0.70;;
23362;SDS011;11853;48.080;11.960;2023-03-09T04:45:32;2.35;;;0.70;;
23362;SDS011;11853;48.080;11.960;2023-03-09T04:47:58;0.80;;;0.60;;
23362;SDS011;11853;48.080;11.960;2023-03-09T04:50:24;0.80;;;0.60;;
23362;SDS011;11853;48.080;11.960;2023-03-09T04:52:50;1.17;;;0.40;;
23362;SDS011;11853;48.080;11.960;2023-03-09T04:55:16;0.55;;;0.50;;
23362;SDS011;11853;48.080;11.960;2023-03-09T04:57:43;1.55;;;0.88;;
23362;SDS011;11853;48.080;11.960;2023-03-09T05:00:09;0.73;;;0.68;;
23362;SDS011;11853;48.080;11.960;2023-03-09T05:02:39;1.23;;;0.75;;
23362;SDS011;11853;48.080;11.960;2023-03-09T05:05:05;0.93;;;0.60;;
23362;SDS011;11853;48.080;11.960;2023-03-09T05:07:33;2.30;;;0.80;;
23362;SDS011;11853;48.080;11.960;2023-03-09T05:09:59;0.95;;;0.80;;
23362;SDS011;11853;48.080;11.960;2023-03-09T05:12:25;1.25;;;0.85;;
23362;SDS011;11853;48.080;11.960;2023-03-09T05:14:57;1.10;;;0.70;;
23362;SDS011;11853;48.080;11.960;2023-03-09T05:17:23;0.77;;;0.77;;
23362;SDS011;11853;48.080;11.960;2023-03-09T05:19:49;1.17;;;0.73;;
23362;SDS011;11853;48.080;11.960;2023-03-09T05:22:16;1.45;;;0.70;;
23362;SDS011;11853;48.080;11.960;2023-03-09T05:24:42;4.03;;;1.10;;
23362;SDS011;11853;48.080;11.960;2023-03-09T05:27:08;1.75;;;0.60;;
23362;SDS011;11853;48.080;11.960;2023-03-09T05:29:34;1.98;;;0.60;;
23362;SDS011;11853;48.080;11.960;2023-03-09T05:31:59;2.25;;;1.08;;
23362;SDS011;11853;48.080;11.960;2023-03-09T05:34:25;0.82;;;0.73;;
23362;SDS011;11853;48.080;11.960;2023-03-09T05:36:51;3.33;;;0.57;;
23362;SDS011;11853;48.080;11.960;2023-03-09T05:39:16;2.22;;;0.60;;
23362;SDS011;11853;48.080;11.960;2023-03-09T05:41:42;1.50;;;0.65;;
23362;SDS011;11853;48.080;11.960;2023-03-09T05:44:08;1.08;;;0.70;;
23362;SDS011;11853;48.080;11.960;2023-03-09T05:46:33;0.63;;;0.60;;
23362;SDS011;11853;48.080;11.960;2023-03-09T05:49:00;1.25;;;0.52;;
23362;SDS011;11853;48.080;11.960;2023-03-09T05:51:26;1.52;;;0.50;;
23362;SDS011;11853;48.080;11.960;2023-03-09T05:53:52;1.08;;;0.40;;
23362;SDS011;11853;48.080;11.960;2023-03-09T05:56:18;1.13;;;0.50;;
23362;SDS011;11853;48.080;11.960;2023-03-09T05:58:43;0.32;;;0.32;;
23362;SDS011;11853;48.080;11.960;2023-03-09T06:01:19;1.67;;;0.70;;
23362;SDS011;11853;48.080;11.960;2023-03-09T06:03:47;0.80;;;0.40;;
23362;SDS011;11853;48.080;11.960;2023-03-09T06:06:14;3.92;;;0.60;;
23362;SDS011;11853;48.080;11.960;2023-03-09T06:08:40;0.70;;;0.40;;
23362;SDS011;11853;48.080;11.960;2023-03-09T06:11:06;1.20;;;0.50;;
23362;SDS011;11853;48.080;11.960;2023-03-09T06:13:32;0.85;;;0.60;;
23362;SDS011;11853;48.080;11.960;2023-03-09T06:15:57;0.98;;;0.63;;
23362;SDS011;11853;48.080;11.960;2023-03-09T06:18:23;0.75;;;0.40;;
23362;SDS011;11853;48.080;11.960;2023-03-09T06:20:51;0.63;;;0.40;;
23362;SDS011;11853;48.080;11.960;2023-03-09T06:23:16;2.33;;;0.50;;
23362;SDS011;11853;48.080;11.960;2023-03-09T06:25:42;0.43;;;0.30;;
23362;SDS011;11853;48.080;11.960;2023-03-09T06:28:08;0.45;;;0.45;;
23362;SDS011;11853;48.080;11.960;2023-03-09T06:30:34;0.40;;;0.35;;
23362;SDS011;11853;48.080;11.960;2023-03-09T06:32:59;1.33;;;0.40;;
23362;SDS011;11853;48.080;11.960;2023-03-09T06:35:25;1.52;;;0.50;;
23362;SDS011;11853;48.080;11.960;2023-03-09T06:37:51;1.52;;;0.60;;
23362;SDS011;11853;48.080;11.960;2023-03-09T06:40:16;0.65;;;0.40;;
23362;SDS011;11853;48.080;11.960;2023-03-09T06:42:42;0.63;;;0.60;;
23362;SDS011;11853;48.080;11.960;2023-03-09T06:45:10;0.73;;;0.65;;
23362;SDS011;11853;48.080;11.960;2023-03-09T06:47:36;0.47;;;0.47;;
23362;SDS011;11853;48.080;11.960;2023-03-09T06:50:02;1.17;;;0.65;;
23362;SDS011;11853;48.080;11.960;2023-03-09T06:52:29;0.40;;;0.40;;
23362;SDS011;11853;48.080;11.960;2023-03-09T06:54:54;0.60;;;0.60;;
23362;SDS011;11853;48.080;11.960;2023-03-09T06:57:20;7.80;;;2.22;;
23362;SDS011;11853;48.080;11.960;2023-03-09T06:59:45;1.60;;;1.00;;
23362;SDS011;11853;48.080;11.960;2023-03-09T07:02:11;3.20;;;1.40;;
23362;SDS011;11853;48.080;11.960;2023-03-09T07:04:38;5.60;;;1.23;;
23362;SDS011;11853;48.080;11.960;2023-03-09T07:07:04;1.48;;;0.98;;
23362;SDS011;11853;48.080;11.960;2023-03-09T07:09:30;1.98;;;0.60;;
23362;SDS011;11853;48.080;11.960;2023-03-09T07:11:57;2.35;;;0.85;;
23362;SDS011;11853;48.080;11.960;2023-03-09T07:14:24;2.83;;;0.90;;
23362;SDS011;11853;48.080;11.960;2023-03-09T07:16:50;1.10;;;0.60;;
23362;SDS011;11853;48.080;11.960;2023-03-09T07:19:17;0.82;;;0.50;;
23362;SDS011;11853;48.080;11.960;2023-03-09T07:21:43;3.03;;;0.80;;
23362;SDS011;11853;48.080;11.960;2023-03-09T07:24:08;1.45;;;0.57;;
23362;SDS011;11853;48.080;11.960;2023-03-09T07:26:34;0.47;;;0.32;;
23362;SDS011;11853;48.080;11.960;2023-03-09T07:29:00;1.63;;;0.43;;
23362;SDS011;11853;48.080;11.960;2023-03-09T07:31:26;0.47;;;0.40;;
23362;SDS011;11853;48.080;11.960;2023-03-09T07:33:54;1.42;;;0.43;;
23362;SDS011;11853;48.080;11.960;2023-03-09T07:36:29;0.40;;;0.40;;
23362;SDS011;11853;48.080;11.960;2023-03-09T07:38:54;0.50;;;0.47;;
23362;SDS011;11853;48.080;11.960;2023-03-09T07:41:20;0.70;;;0.57;;
23362;SDS011;11853;48.080;11.960;2023-03-09T07:43:46;0.40;;;0.40;;
23362;SDS011;11853;48.080;11.960;2023-03-09T07:46:12;0.30;;;0.30;;
23362;SDS011;11853;48.080;11.960;2023-03-09T07:48:40;0.55;;;0.40;;
23362;SDS011;11853;48.080;11.960;2023-03-09T07:51:07;0.55;;;0.50;;
23362;SDS011;11853;48.080;11.960;2023-03-09T07:53:33;0.30;;;0.30;;
23362;SDS011;11853;48.080;11.960;2023-03-09T07:56:01;0.40;;;0.40;;
23362;SDS011;11853;48.080;11.960;2023-03-09T07:58:32;1.27;;;0.32;;
23362;SDS011;11853;48.080;11.960;2023-03-09T08:00:59;0.38;;;0.38;;
23362;SDS011;11853;48.080;11.960;2023-03-09T08:03:26;0.40;;;0.40;;
23362;SDS011;11853;48.080;11.960;2023-03-09T08:05:52;0.68;;;0.30;;
23362;SDS011;11853;48.080;11.960;2023-03-09T08:08:26;0.95;;;0.32;;
23362;SDS011;11853;48.080;11.960;2023-03-09T08:10:53;0.13;;;0.13;;
23362;SDS011;11853;48.080;11.960;2023-03-09T08:13:20;0.95;;;0.20;;
23362;SDS011;11853;48.080;11.960;2023-03-09T08:15:47;0.68;;;0.45;;
23362;SDS011;11853;48.080;11.960;2023-03-09T08:18:13;0.80;;;0.20;;
23362;SDS011;11853;48.080;11.960;2023-03-09T08:20:40;1.08;;;0.30;;
23362;SDS011;11853;48.080;11.960;2023-03-09T08:23:05;1.45;;;0.45;;
23362;SDS011;11853;48.080;11.960;2023-03-09T08:25:32;0.98;;;0.50;;
23362;SDS011;11853;48.080;11.960;2023-03-09T08:27:58;1.45;;;0.38;;
23362;SDS011;11853;48.080;11.960;2023-03-09T08:30:24;0.80;;;0.30;;
23362;SDS011;11853;48.080;11.960;2023-03-09T08:32:51;0.22;;;0.22;;
23362;SDS011;11853;48.080;11.960;2023-03-09T08:35:18;0.98;;;0.40;;
23362;SDS011;11853;48.080;11.960;2023-03-09T08:37:45;0.82;;;0.45;;
23362;SDS011;11853;48.080;11.960;2023-03-09T08:40:11;0.45;;;0.25;;
23362;SDS011;11853;48.080;11.960;2023-03-09T08:42:38;0.45;;;0.38;;
23362;SDS011;11853;48.080;11.960;2023-03-09T08:45:05;0.45;;;0.45;;
23362;SDS011;11853;48.080;11.960;2023-03-09T08:47:32;0.90;;;0.30;;
23362;SDS011;11853;48.080;11.960;2023-03-09T08:49:58;0.30;;;0.30;;
23362;SDS011;11853;48.080;11.960;2023-03-09T08:52:24;0.47;;;0.47;;
23362;SDS011;11853;48.080;11.960;2023-03-09T08:54:50;0.68;;;0.50;;
23362;SDS011;11853;48.080;11.960;2023-03-09T08:57:16;1.15;;;0.30;;
23362;SDS011;11853;48.080;11.960;2023-03-09T08:59:43;0.52;;;0.40;;
23362;SDS011;11853;48.080;11.960;2023-03-09T09:02:10;1.50;;;0.40;;
23362;SDS011;11853;48.080;11.960;2023-03-09T09:04:42;0.65;;;0.32;;
23362;SDS011;11853;48.080;11.960;2023-03-09T09:07:09;0.22;;;0.22;;
23362;SDS011;11853;48.080;11.960;2023-03-09T09:09:39;0.30;;;0.30;;
23362;SDS011;11853;48.080;11.960;2023-03-09T09:12:06;0.47;;;0.30;;
23362;SDS011;11853;48.080;11.960;2023-03-09T09:14:32;0.20;;;0.20;;
23362;SDS011;11853;48.080;11.960;2023-03-09T09:16:58;0.20;;;0.20;;
23362;SDS011;11853;48.080;11.960;2023-03-09T09:19:25;0.90;;;0.45;;
23362;SDS011;11853;48.080;11.960;2023-03-09T09:21:51;0.73;;;0.40;;
23362;SDS011;11853;48.080;11.960;2023-03-09T09:24:18;0.68;;;0.35;;
23362;SDS011;11853;48.080;11.960;2023-03-09T09:26:44;1.55;;;0.85;;
23362;SDS011;11853;48.080;11.960;2023-03-09T09:29:10;1.02;;;0.57;;
23362;SDS011;11853;48.080;11.960;2023-03-09T09:31:37;1.45;;;0.40;;
23362;SDS011;11853;48.080;11.960;2023-03-09T09:34:03;1.50;;;0.70;;
23362;SDS011;11853;48.080;11.960;2023-03-09T09:36:29;0.80;;;0.60;;
23362;SDS011;11853;48.080;11.960;2023-03-09T09:38:55;1.45;;;0.57;;
23362;SDS011;11853;48.080;11.960;2023-03-09T09:41:30;3.03;;;0.70;;
23362;SDS011;11853;48.080;11.960;2023-03-09T09:44:06;0.73;;;0.55;;
23362;SDS011;11853;48.080;11.960;2023-03-09T09:46:39;1.67;;;0.70;;
23362;SDS011;11853;48.080;11.960;2023-03-09T09:49:05;2.33;;;0.90;;
23362;SDS011;11853;48.080;11.960;2023-03-09T09:54:37;1.23;;;0.80;;
23362;SDS011;11853;48.080;11.960;2023-03-09T10:02:42;2.75;;;0.90;;
23362;SDS011;11853;48.080;11.960;2023-03-09T10:08:12;1.63;;;0.77;;
23362;SDS011;11853;48.080;11.960;2023-03-09T10:10:51;1.48;;;1.00;;
23362;SDS011;11853;48.080;11.960;2023-03-09T10:13:30;1.88;;;1.10;;
23362;SDS011;11853;48.080;11.960;2023-03-09T10:16:04;2.38;;;0.70;;
23362;SDS011;11853;48.080;11.960;2023-03-09T10:18:38;2.67;;;0.90;;
23362;SDS011;11853;48.080;11.960;2023-03-09T10:21:15;2.47;;;1.33;;
23362;SDS011;11853;48.080;11.960;2023-03-09T10:23:45;2.75;;;0.90;;
23362;SDS011;11853;48.080;11.960;2023-03-09T10:26:17;2.33;;;1.17;;
23362;SDS011;11853;48.080;11.960;2023-03-09T10:28:51;3.30;;;1.27;;
23362;SDS011;11853;48.080;11.960;2023-03-09T10:31:28;2.30;;;0.90;;
23362;SDS011;11853;48.080;11.960;2023-03-09T10:34:10;2.25;;;1.33;;
23362;SDS011;11853;48.080;11.960;2023-03-09T10:36:59;3.33;;;1.20;;
23362;SDS011;11853;48.080;11.960;2023-03-09T10:39:40;3.83;;;1.20;;
23362;SDS011;11853;48.080;11.960;2023-03-09T10:42:27;1.13;;;0.90;;
23362;SDS011;11853;48.080;11.960;2023-03-09T10:45:03;0.60;;;0.40;;
23362;SDS011;11853;48.080;11.960;2023-03-09T10:50:17;0.60;;;0.60;;
23362;SDS011;11853;48.080;11.960;2023-03-09T10:52:42;1.10;;;0.70;;
23362;SDS011;11853;48.080;11.960;2023-03-09T10:57:55;0.95;;;0.50;;
23362;SDS011;11853;48.080;11.960;2023-03-09T11:00:23;0.32;;;0.32;;
23362;SDS011;11853;48.080;11.960;2023-03-09T11:02:50;1.08;;;0.30;;
23362;SDS011;11853;48.080;11.960;2023-03-09T11:05:25;2.78;;;1.10;;
23362;SDS011;11853;48.080;11.960;2023-03-09T11:07:54;1.00;;;0.52;;
23362;SDS011;11853;48.080;11.960;2023-03-09T11:12:55;2.70;;;0.90;;
23362;SDS011;11853;48.080;11.960;2023-03-09T11:15:24;1.17;;;0.50;;
23362;SDS011;11853;48.080;11.960;2023-03-09T11:17:50;1.83;;;0.60;;
23362;SDS011;11853;48.080;11.960;2023-03-09T11:26:14;1.38;;;0.80;;
23362;SDS011;11853;48.080;11.960;2023-03-09T11:31:14;1.05;;;0.55;;
23362;SDS011;11853;48.080;11.960;2023-03-09T11:33:43;1.85;;;0.70;;
23362;SDS011;11853;48.080;11.960;2023-03-09T11:46:52;2.20;;;0.90;;
23362;SDS011;11853;48.080;11.960;2023-03-09T11:49:22;2.25;;;0.90;;
23362;SDS011;11853;48.080;11.960;2023-03-09T11:51:51;2.15;;;0.80;;
23362;SDS011;11853;48.080;11.960;2023-03-09T11:54:22;4.50;;;1.00;;
23362;SDS011;11853;48.080;11.960;2023-03-09T11:56:52;1.67;;;0.73;;
23362;SDS011;11853;48.080;11.960;2023-03-09T11:59:21;2.22;;;1.10;;
23362;SDS011;11853;48.080;11.960;2023-03-09T12:04:46;2.25;;;0.85;;
23362;SDS011;11853;48.080;11.960;2023-03-09T12:12:56;1.67;;;1.10;;
23362;SDS011;11853;48.080;11.960;2023-03-09T12:18:23;1.35;;;0.90;;
23362;SDS011;11853;48.080;11.960;2023-03-09T12:20:54;4.75;;;1.05;;
23362;SDS011;11853;48.080;11.960;2023-03-09T12:26:00;2.45;;;1.05;;
23362;SDS011;11853;48.080;11.960;2023-03-09T12:31:44;3.45;;;0.98;;
23362;SDS011;11853;48.080;11.960;2023-03-09T12:34:37;3.33;;;1.08;;
23362;SDS011;11853;48.080;11.960;2023-03-09T12:40:17;1.80;;;0.90;;
23362;SDS011;11853;48.080;11.960;2023-03-09T12:42:58;2.42;;;0.68;;
23362;SDS011;11853;48.080;11.960;2023-03-09T12:45:45;3.00;;;0.93;;
23362;SDS011;11853;48.080;11.960;2023-03-09T12:53:22;3.30;;;0.95;;
23362;SDS011;11853;48.080;11.960;2023-03-09T12:55:59;2.05;;;0.93;;
23362;SDS011;11853;48.080;11.960;2023-03-09T12:58:41;3.03;;;0.88;;
23362;SDS011;11853;48.080;11.960;2023-03-09T13:03:50;2.28;;;0.90;;
23362;SDS011;11853;48.080;11.960;2023-03-09T13:06:32;3.65;;;1.10;;
23362;SDS011;11853;48.080;11.960;2023-03-09T13:09:05;3.00;;;0.80;;
23362;SDS011;11853;48.080;11.960;2023-03-09T13:16:50;1.45;;;0.80;;
23362;SDS011;11853;48.080;11.960;2023-03-09T13:21:48;1.55;;;0.63;;
23362;SDS011;11853;48.080;11.960;2023-03-09T13:24:40;4.03;;;1.10;;
23362;SDS011;11853;48.080;11.960;2023-03-09T13:29:42;4.45;;;0.63;;
23362;SDS011;11853;48.080;11.960;2023-03-09T13:35:18;1.10;;;0.85;;
23362;SDS011;11853;48.080;11.960;2023-03-09T13:37:46;2.78;;;1.08;;
23362;SDS011;11853;48.080;11.960;2023-03-09T13:42:45;3.40;;;1.52;;
23362;SDS011;11853;48.080;11.960;2023-03-09T13:45:18;3.00;;;0.85;;
23362;SDS011;11853;48.080;11.960;2023-03-09T13:47:46;5.93;;;1.38;;
23362;SDS011;11853;48.080;11.960;2023-03-09T13:50:17;3.53;;;1.10;;
23362;SDS011;11853;48.080;11.960;2023-03-09T13:53:00;2.25;;;1.23;;
23362;SDS011;11853;48.080;11.960;2023-03-09T13:55:28;2.55;;;1.25;;
23362;SDS011;11853;48.080;11.960;2023-03-09T13:57:54;3.17;;;1.20;;
23362;SDS011;11853;48.080;11.960;2023-03-09T14:00:53;3.30;;;1.15;;
23362;SDS011;11853;48.080;11.960;2023-03-09T14:03:24;3.45;;;1.25;;
23362;SDS011;11853;48.080;11.960;2023-03-09T14:08:32;3.65;;;1.00;;
23362;SDS011;11853;48.080;11.960;2023-03-09T14:11:19;2.25;;;1.05;;
23362;SDS011;11853;48.080;11.960;2023-03-09T14:13:57;2.70;;;1.10;;
23362;SDS011;11853;48.080;11.960;2023-03-09T14:16:29;6.50;;;1.40;;
23362;SDS011;11853;48.080;11.960;2023-03-09T14:18:56;3.47;;;1.17;;
23362;SDS011;11853;48.080;11.960;2023-03-09T14:21:24;3.15;;;1.02;;
23362;SDS011;11853;48.080;11.960;2023-03-09T14:23:52;2.15;;;1.23;;
23362;SDS011;11853;48.080;11.960;2023-03-09T14:26:23;1.88;;;1.20;;
23362;SDS011;11853;48.080;11.960;2023-03-09T14:29:39;2.13;;;1.27;;
23362;SDS011;11853;48.080;11.960;2023-03-09T14:31:39;4.18;;;1.42;;
23362;SDS011;11853;48.080;11.960;2023-03-09T14:34:06;3.25;;;1.35;;
23362;SDS011;11853;48.080;11.960;2023-03-09T14:36:52;4.82;;;1.48;;
23362;SDS011;11853;48.080;11.960;2023-03-09T14:45:02;3.53;;;1.02;;
23362;SDS011;11853;48.080;11.960;2023-03-09T14:47:43;2.75;;;1.10;;
23362;SDS011;11853;48.080;11.960;2023-03-09T14:50:15;3.03;;;1.40;;
23362;SDS011;11853;48.080;11.960;2023-03-09T14:52:44;5.03;;;1.30;;
23362;SDS011;11853;48.080;11.960;2023-03-09T14:55:14;3.70;;;1.40;;
23362;SDS011;11853;48.080;11.960;2023-03-09T14:57:43;3.72;;;1.38;;
23362;SDS011;11853;48.080;11.960;2023-03-09T15:00:13;5.45;;;1.50;;
23362;SDS011;11853;48.080;11.960;2023-03-09T15:02:49;3.38;;;1.23;;
23362;SDS011;11853;48.080;11.960;2023-03-09T15:05:19;4.95;;;1.50;;
23362;SDS011;11853;48.080;11.960;2023-03-09T15:07:47;3.15;;;1.45;;
23362;SDS011;11853;48.080;11.960;2023-03-09T15:10:13;4.97;;;1.40;;
23362;SDS011;11853;48.080;11.960;2023-03-09T15:12:42;4.97;;;1.65;;
23362;SDS011;11853;48.080;11.960;2023-03-09T15:15:19;3.90;;;1.30;;
23362;SDS011;11853;48.080;11.960;2023-03-09T15:17:51;3.35;;;1.48;;
23362;SDS011;11853;48.080;11.960;2023-03-09T15:20:19;4.25;;;1.58;;
23362;SDS011;11853;48.080;11.960;2023-03-09T15:22:46;3.00;;;1.23;;
23362;SDS011;11853;48.080;11.960;2023-03-09T15:25:13;4.05;;;2.38;;
23362;SDS011;11853;48.080;11.960;2023-03-09T15:27:40;5.13;;;1.90;;
23362;SDS011;11853;48.080;11.960;2023-03-09T15:30:09;2.83;;;1.38;;
23362;SDS011;11853;48.080;11.960;2023-03-09T15:32:36;4.63;;;1.80;;
23362;SDS011;11853;48.080;11.960;2023-03-09T15:35:02;5.28;;;1.23;;
23362;SDS011;11853;48.080;11.960;2023-03-09T15:37:28;3.95;;;1.08;;
23362;SDS011;11853;48.080;11.960;2023-03-09T15:39:54;2.33;;;1.38;;
23362;SDS011;11853;48.080;11.960;2023-03-09T15:42:19;4.15;;;1.30;;
23362;SDS011;11853;48.080;11.960;2023-03-09T15:44:45;2.97;;;1.20;;
23362;SDS011;11853;48.080;11.960;2023-03-09T15:47:11;4.93;;;1.20;;
23362;SDS011;11853;48.080;11.960;2023-03-09T15:49:39;3.25;;;1.20;;
23362;SDS011;11853;48.080;11.960;2023-03-09T15:52:06;5.63;;;1.38;;
23362;SDS011;11853;48.080;11.960;2023-03-09T15:54:32;4.03;;;1.50;;
23362;SDS011;11853;48.080;11.960;2023-03-09T15:56:57;3.40;;;1.52;;
23362;SDS011;11853;48.080;11.960;2023-03-09T15:59:23;4.15;;;1.35;;
23362;SDS011;11853;48.080;11.960;2023-03-09T16:01:49;3.17;;;1.40;;
23362;SDS011;11853;48.080;11.960;2023-03-09T16:04:17;5.25;;;1.20;;
23362;SDS011;11853;48.080;11.960;2023-03-09T16:06:43;2.83;;;1.27;;
23362;SDS011;11853;48.080;11.960;2023-03-09T16:09:10;4.38;;;1.20;;
23362;SDS011;11853;48.080;11.960;2023-03-09T16:11:36;3.33;;;1.45;;
23362;SDS011;11853;48.080;11.960;2023-03-09T16:14:03;6.28;;;1.45;;
23362;SDS011;11853;48.080;11.960;2023-03-09T16:16:29;5.22;;;1.55;;
23362;SDS011;11853;48.080;11.960;2023-03-09T16:18:55;4.45;;;1.35;;
23362;SDS011;11853;48.080;11.960;2023-03-09T16:21:22;2.95;;;1.23;;